sensor_id;sensor_type;location;lat;lon;timestamp;temperature;humidity
50013;DHT22;35901;48.694;9.476;2024-03-25T00:00:19;3.90;99.90
50013;DHT22;35901;48.694;9.476;2024-03-25T00:02:46;3.90;99.90
50013;DHT22;35901;48.694;9.476;2024-03-25T00:05:12;3.90;99.90
50013;DHT22;35901;48.694;9.476;2024-03-25T00:07:40;3.90;99.90
50013;DHT22;35901;48.694;9.476;2024-03-25T00:10:06;3.90;99.90
50013;DHT22;35901;48.694;9.476;2024-03-25T00:12:34;3.90;99.90
50013;DHT22;35901;48.694;9.476;2024-03-25T00:14:59;3.90;99.90
50013;DHT22;35901;48.694;9.476;2024-03-25T00:17:25;4.00;99.90
50013;DHT22;35901;48.694;9.476;2024-03-25T00:19:51;4.00;99.90
50013;DHT22;35901;48.694;9.476;2024-03-25T00:22:18;4.00;99.90
50013;DHT22;35901;48.694;9.476;2024-03-25T00:24:45;4.00;99.90
50013;DHT22;35901;48.694;9.476;2024-03-25T00:27:12;4.00;99.90
50013;DHT22;35901;48.694;9.476;2024-03-25T00:29:38;4.00;99.90
50013;DHT22;35901;48.694;9.476;2024-03-25T00:32:04;3.90;99.90
50013;DHT22;35901;48.694;9.476;2024-03-25T00:34:30;3.90;99.90
50013;DHT22;35901;48.694;9.476;2024-03-25T00:36:55;3.90;99.90
50013;DHT22;35901;48.694;9.476;2024-03-25T00:39:21;3.90;99.90
50013;DHT22;35901;48.694;9.476;2024-03-25T00:41:47;3.90;99.90
50013;DHT22;35901;48.694;9.476;2024-03-25T00:44:13;3.90;99.90
50013;DHT22;35901;48.694;9.476;2024-03-25T00:46:40;3.90;99.90
50013;DHT22;35901;48.694;9.476;2024-03-25T00:49:07;3.90;99.90
50013;DHT22;35901;48.694;9.476;2024-03-25T00:51:34;3.90;99.90
50013;DHT22;35901;48.694;9.476;2024-03-25T00:53:59;3.90;99.90
50013;DHT22;35901;48.694;9.476;2024-03-25T00:56:25;3.90;99.90
50013;DHT22;35901;48.694;9.476;2024-03-25T00:58:51;3.90;99.90
50013;DHT22;35901;48.694;9.476;2024-03-25T01:01:17;3.90;99.90
50013;DHT22;35901;48.694;9.476;2024-03-25T01:03:42;3.90;99.90
50013;DHT22;35901;48.694;9.476;2024-03-25T01:06:08;3.90;99.90
50013;DHT22;35901;48.694;9.476;2024-03-25T01:08:34;3.80;99.90
50013;DHT22;35901;48.694;9.476;2024-03-25T01:11:00;3.80;99.90
50013;DHT22;35901;48.694;9.476;2024-03-25T01:13:26;3.80;99.90
50013;DHT22;35901;48.694;9.476;2024-03-25T01:15:51;3.80;99.90
50013;DHT22;35901;48.694;9.476;2024-03-25T01:18:17;3.80;99.90
50013;DHT22;35901;48.694;9.476;2024-03-25T01:20:44;3.70;99.90
50013;DHT22;35901;48.694;9.476;2024-03-25T01:23:10;3.70;99.90
50013;DHT22;35901;48.694;9.476;2024-03-25T01:25:36;3.60;99.90
50013;DHT22;35901;48.694;9.476;2024-03-25T01:28:02;3.60;99.90
50013;DHT22;35901;48.694;9.476;2024-03-25T01:30:27;3.50;99.90
50013;DHT22;35901;48.694;9.476;2024-03-25T01:32:54;3.50;99.90
50013;DHT22;35901;48.694;9.476;2024-03-25T01:35:20;3.50;99.90
50013;DHT22;35901;48.694;9.476;2024-03-25T01:37:46;3.50;99.90
50013;DHT22;35901;48.694;9.476;2024-03-25T01:40:12;3.40;99.90
50013;DHT22;35901;48.694;9.476;2024-03-25T01:42:38;3.40;99.90
50013;DHT22;35901;48.694;9.476;2024-03-25T01:45:04;3.30;99.90
50013;DHT22;35901;48.694;9.476;2024-03-25T01:47:32;3.30;99.90
50013;DHT22;35901;48.694;9.476;2024-03-25T01:50:01;3.30;99.90
50013;DHT22;35901;48.694;9.476;2024-03-25T01:52:29;3.30;99.90
50013;DHT22;35901;48.694;9.476;2024-03-25T01:54:56;3.30;99.90
50013;DHT22;35901;48.694;9.476;2024-03-25T01:57:22;3.30;99.90
50013;DHT22;35901;48.694;9.476;2024-03-25T01:59:48;3.20;99.90
50013;DHT22;35901;48.694;9.476;2024-03-25T02:02:14;3.20;99.90
50013;DHT22;35901;48.694;9.476;2024-03-25T02:04:40;3.20;99.90
50013;DHT22;35901;48.694;9.476;2024-03-25T02:07:07;3.20;99.90
50013;DHT22;35901;48.694;9.476;2024-03-25T02:09:35;3.20;99.90
50013;DHT22;35901;48.694;9.476;2024-03-25T02:12:02;3.20;99.90
50013;DHT22;35901;48.694;9.476;2024-03-25T02:14:28;3.30;99.90
50013;DHT22;35901;48.694;9.476;2024-03-25T02:16:53;3.30;99.90
50013;DHT22;35901;48.694;9.476;2024-03-25T02:19:21;3.30;99.90
50013;DHT22;35901;48.694;9.476;2024-03-25T02:21:47;3.30;99.90
50013;DHT22;35901;48.694;9.476;2024-03-25T02:24:14;3.40;99.90
50013;DHT22;35901;48.694;9.476;2024-03-25T02:26:41;3.40;99.90
50013;DHT22;35901;48.694;9.476;2024-03-25T02:29:09;3.40;99.90
50013;DHT22;35901;48.694;9.476;2024-03-25T02:31:35;3.40;99.90
50013;DHT22;35901;48.694;9.476;2024-03-25T02:34:00;3.40;99.90
50013;DHT22;35901;48.694;9.476;2024-03-25T02:36:26;3.40;99.90
50013;DHT22;35901;48.694;9.476;2024-03-25T02:38:53;3.40;99.90
50013;DHT22;35901;48.694;9.476;2024-03-25T02:41:19;3.40;99.90
50013;DHT22;35901;48.694;9.476;2024-03-25T02:43:45;3.40;99.90
50013;DHT22;35901;48.694;9.476;2024-03-25T02:46:11;3.40;99.90
50013;DHT22;35901;48.694;9.476;2024-03-25T02:48:37;3.50;99.90
50013;DHT22;35901;48.694;9.476;2024-03-25T02:51:02;3.50;99.90
50013;DHT22;35901;48.694;9.476;2024-03-25T02:53:28;3.50;99.90
50013;DHT22;35901;48.694;9.476;2024-03-25T02:55:53;3.50;99.90
50013;DHT22;35901;48.694;9.476;2024-03-25T02:58:19;3.50;99.90
50013;DHT22;35901;48.694;9.476;2024-03-25T03:00:45;3.50;99.90
50013;DHT22;35901;48.694;9.476;2024-03-25T03:03:10;3.50;99.90
50013;DHT22;35901;48.694;9.476;2024-03-25T03:05:36;3.50;99.90
50013;DHT22;35901;48.694;9.476;2024-03-25T03:08:02;3.50;99.90
50013;DHT22;35901;48.694;9.476;2024-03-25T03:10:27;3.50;99.90
50013;DHT22;35901;48.694;9.476;2024-03-25T03:12:53;3.50;99.90
50013;DHT22;35901;48.694;9.476;2024-03-25T03:15:18;3.50;99.90
50013;DHT22;35901;48.694;9.476;2024-03-25T03:17:44;3.50;99.90
50013;DHT22;35901;48.694;9.476;2024-03-25T03:20:10;3.50;99.90
50013;DHT22;35901;48.694;9.476;2024-03-25T03:22:36;3.50;99.90
50013;DHT22;35901;48.694;9.476;2024-03-25T03:25:02;3.50;99.90
50013;DHT22;35901;48.694;9.476;2024-03-25T03:27:29;3.50;99.90
50013;DHT22;35901;48.694;9.476;2024-03-25T03:29:56;3.50;99.90
50013;DHT22;35901;48.694;9.476;2024-03-25T03:32:21;3.50;99.90
50013;DHT22;35901;48.694;9.476;2024-03-25T03:34:47;3.50;99.90
50013;DHT22;35901;48.694;9.476;2024-03-25T03:37:13;3.50;99.90
50013;DHT22;35901;48.694;9.476;2024-03-25T03:39:38;3.50;99.90
50013;DHT22;35901;48.694;9.476;2024-03-25T03:42:04;3.50;99.90
50013;DHT22;35901;48.694;9.476;2024-03-25T03:44:29;3.50;99.90
50013;DHT22;35901;48.694;9.476;2024-03-25T03:46:55;3.50;99.90
50013;DHT22;35901;48.694;9.476;2024-03-25T03:49:21;3.50;99.90
50013;DHT22;35901;48.694;9.476;2024-03-25T03:51:46;3.50;99.90
50013;DHT22;35901;48.694;9.476;2024-03-25T03:54:12;3.50;99.90
50013;DHT22;35901;48.694;9.476;2024-03-25T03:56:38;3.50;99.90
50013;DHT22;35901;48.694;9.476;2024-03-25T03:59:03;3.50;99.90
50013;DHT22;35901;48.694;9.476;2024-03-25T04:01:29;3.50;99.90
50013;DHT22;35901;48.694;9.476;2024-03-25T04:03:55;3.50;99.90
50013;DHT22;35901;48.694;9.476;2024-03-25T04:06:21;3.50;99.90
50013;DHT22;35901;48.694;9.476;2024-03-25T04:08:46;3.50;99.90
50013;DHT22;35901;48.694;9.476;2024-03-25T04:11:12;3.50;99.90
50013;DHT22;35901;48.694;9.476;2024-03-25T04:13:37;3.50;99.90
50013;DHT22;35901;48.694;9.476;2024-03-25T04:16:05;3.50;99.90
50013;DHT22;35901;48.694;9.476;2024-03-25T04:18:32;3.50;99.90
50013;DHT22;35901;48.694;9.476;2024-03-25T04:20:58;3.50;99.90
50013;DHT22;35901;48.694;9.476;2024-03-25T04:23:24;3.50;99.90
50013;DHT22;35901;48.694;9.476;2024-03-25T04:25:50;3.50;99.90
50013;DHT22;35901;48.694;9.476;2024-03-25T04:28:16;3.40;99.90
50013;DHT22;35901;48.694;9.476;2024-03-25T04:30:42;3.40;99.90
50013;DHT22;35901;48.694;9.476;2024-03-25T04:33:08;3.40;99.90
50013;DHT22;35901;48.694;9.476;2024-03-25T04:35:34;3.40;99.90
50013;DHT22;35901;48.694;9.476;2024-03-25T04:37:59;3.40;99.90
50013;DHT22;35901;48.694;9.476;2024-03-25T04:40:25;3.40;99.90
50013;DHT22;35901;48.694;9.476;2024-03-25T04:42:51;3.40;99.90
50013;DHT22;35901;48.694;9.476;2024-03-25T04:45:16;3.40;99.90
50013;DHT22;35901;48.694;9.476;2024-03-25T04:47:42;3.40;99.90
50013;DHT22;35901;48.694;9.476;2024-03-25T04:50:08;3.40;99.90
50013;DHT22;35901;48.694;9.476;2024-03-25T04:52:34;3.40;99.90
50013;DHT22;35901;48.694;9.476;2024-03-25T04:55:00;3.40;99.90
50013;DHT22;35901;48.694;9.476;2024-03-25T04:57:26;3.30;99.90
50013;DHT22;35901;48.694;9.476;2024-03-25T04:59:51;3.30;99.90
50013;DHT22;35901;48.694;9.476;2024-03-25T05:02:17;3.30;99.90
50013;DHT22;35901;48.694;9.476;2024-03-25T05:04:42;3.20;99.90
50013;DHT22;35901;48.694;9.476;2024-03-25T05:07:08;3.20;99.90
50013;DHT22;35901;48.694;9.476;2024-03-25T05:09:34;3.20;99.90
50013;DHT22;35901;48.694;9.476;2024-03-25T05:12:00;3.30;99.90
50013;DHT22;35901;48.694;9.476;2024-03-25T05:14:26;3.30;99.90
50013;DHT22;35901;48.694;9.476;2024-03-25T05:16:51;3.30;99.90
50013;DHT22;35901;48.694;9.476;2024-03-25T05:19:19;3.30;99.90
50013;DHT22;35901;48.694;9.476;2024-03-25T05:21:44;3.40;99.90
50013;DHT22;35901;48.694;9.476;2024-03-25T05:24:10;3.40;99.90
50013;DHT22;35901;48.694;9.476;2024-03-25T05:26:36;3.40;99.90
50013;DHT22;35901;48.694;9.476;2024-03-25T05:29:02;3.40;99.90
50013;DHT22;35901;48.694;9.476;2024-03-25T05:31:28;3.40;99.90
50013;DHT22;35901;48.694;9.476;2024-03-25T05:33:53;3.40;99.90
50013;DHT22;35901;48.694;9.476;2024-03-25T05:36:19;3.40;99.90
50013;DHT22;35901;48.694;9.476;2024-03-25T05:38:45;3.50;99.90
50013;DHT22;35901;48.694;9.476;2024-03-25T05:41:11;3.80;99.90
50013;DHT22;35901;48.694;9.476;2024-03-25T05:43:37;4.00;99.90
50013;DHT22;35901;48.694;9.476;2024-03-25T05:46:03;4.20;99.90
50013;DHT22;35901;48.694;9.476;2024-03-25T05:48:29;4.40;99.90
50013;DHT22;35901;48.694;9.476;2024-03-25T05:51:03;4.40;99.90
50013;DHT22;35901;48.694;9.476;2024-03-25T05:53:31;4.30;99.90
50013;DHT22;35901;48.694;9.476;2024-03-25T05:55:56;4.20;99.90
50013;DHT22;35901;48.694;9.476;2024-03-25T05:58:24;4.40;99.90
50013;DHT22;35901;48.694;9.476;2024-03-25T06:00:51;4.30;99.90
50013;DHT22;35901;48.694;9.476;2024-03-25T06:03:17;4.20;99.90
50013;DHT22;35901;48.694;9.476;2024-03-25T06:05:43;4.00;99.90
50013;DHT22;35901;48.694;9.476;2024-03-25T06:08:09;4.00;99.90
50013;DHT22;35901;48.694;9.476;2024-03-25T06:10:43;4.00;99.90
50013;DHT22;35901;48.694;9.476;2024-03-25T06:13:09;4.10;99.90
50013;DHT22;35901;48.694;9.476;2024-03-25T06:15:35;4.10;99.90
50013;DHT22;35901;48.694;9.476;2024-03-25T06:18:00;4.10;99.90
50013;DHT22;35901;48.694;9.476;2024-03-25T06:20:26;4.00;99.90
50013;DHT22;35901;48.694;9.476;2024-03-25T06:22:52;4.00;99.90
50013;DHT22;35901;48.694;9.476;2024-03-25T06:25:17;4.00;99.90
50013;DHT22;35901;48.694;9.476;2024-03-25T06:27:43;4.00;99.90
50013;DHT22;35901;48.694;9.476;2024-03-25T06:30:10;4.00;99.90
50013;DHT22;35901;48.694;9.476;2024-03-25T06:32:54;4.30;99.90
50013;DHT22;35901;48.694;9.476;2024-03-25T06:35:39;4.40;99.90
50013;DHT22;35901;48.694;9.476;2024-03-25T06:38:04;4.30;99.90
50013;DHT22;35901;48.694;9.476;2024-03-25T06:40:30;4.20;99.90
50013;DHT22;35901;48.694;9.476;2024-03-25T06:42:57;4.30;99.90
50013;DHT22;35901;48.694;9.476;2024-03-25T06:45:23;5.00;99.90
50013;DHT22;35901;48.694;9.476;2024-03-25T06:47:49;6.10;99.90
50013;DHT22;35901;48.694;9.476;2024-03-25T06:50:14;6.80;99.90
50013;DHT22;35901;48.694;9.476;2024-03-25T06:52:40;7.40;99.90
50013;DHT22;35901;48.694;9.476;2024-03-25T06:55:06;7.80;99.90
50013;DHT22;35901;48.694;9.476;2024-03-25T06:57:32;8.20;99.90
50013;DHT22;35901;48.694;9.476;2024-03-25T06:59:58;8.30;99.90
50013;DHT22;35901;48.694;9.476;2024-03-25T07:02:24;8.40;99.90
50013;DHT22;35901;48.694;9.476;2024-03-25T07:04:50;8.60;99.90
50013;DHT22;35901;48.694;9.476;2024-03-25T07:07:15;8.80;99.90
50013;DHT22;35901;48.694;9.476;2024-03-25T07:09:41;8.90;99.90
50013;DHT22;35901;48.694;9.476;2024-03-25T07:12:07;8.70;99.90
50013;DHT22;35901;48.694;9.476;2024-03-25T07:14:33;9.00;99.90
50013;DHT22;35901;48.694;9.476;2024-03-25T07:16:58;8.50;99.90
50013;DHT22;35901;48.694;9.476;2024-03-25T07:19:24;7.70;99.90
50013;DHT22;35901;48.694;9.476;2024-03-25T07:21:50;7.10;99.90
50013;DHT22;35901;48.694;9.476;2024-03-25T07:24:15;6.70;99.90
50013;DHT22;35901;48.694;9.476;2024-03-25T07:26:41;6.50;99.90
50013;DHT22;35901;48.694;9.476;2024-03-25T07:29:07;6.30;99.90
50013;DHT22;35901;48.694;9.476;2024-03-25T07:31:33;6.10;99.90
50013;DHT22;35901;48.694;9.476;2024-03-25T07:33:58;5.90;99.90
50013;DHT22;35901;48.694;9.476;2024-03-25T07:36:24;5.80;99.90
50013;DHT22;35901;48.694;9.476;2024-03-25T07:38:50;6.50;99.90
50013;DHT22;35901;48.694;9.476;2024-03-25T07:41:15;7.10;99.90
50013;DHT22;35901;48.694;9.476;2024-03-25T07:43:41;6.70;99.90
50013;DHT22;35901;48.694;9.476;2024-03-25T07:46:07;6.30;99.90
50013;DHT22;35901;48.694;9.476;2024-03-25T07:48:32;6.70;99.90
50013;DHT22;35901;48.694;9.476;2024-03-25T07:50:58;7.30;99.90
50013;DHT22;35901;48.694;9.476;2024-03-25T07:53:23;8.00;99.90
50013;DHT22;35901;48.694;9.476;2024-03-25T07:55:49;8.40;99.90
50013;DHT22;35901;48.694;9.476;2024-03-25T07:58:16;8.60;99.90
50013;DHT22;35901;48.694;9.476;2024-03-25T08:00:42;8.90;99.90
50013;DHT22;35901;48.694;9.476;2024-03-25T08:03:08;9.00;99.90
50013;DHT22;35901;48.694;9.476;2024-03-25T08:05:33;9.20;99.90
50013;DHT22;35901;48.694;9.476;2024-03-25T08:08:00;9.10;99.90
50013;DHT22;35901;48.694;9.476;2024-03-25T08:10:26;9.60;99.90
50013;DHT22;35901;48.694;9.476;2024-03-25T08:12:51;10.00;99.90
50013;DHT22;35901;48.694;9.476;2024-03-25T08:15:17;9.80;99.90
50013;DHT22;35901;48.694;9.476;2024-03-25T08:17:43;9.60;99.90
50013;DHT22;35901;48.694;9.476;2024-03-25T08:20:09;9.10;99.90
50013;DHT22;35901;48.694;9.476;2024-03-25T08:22:35;8.50;99.90
50013;DHT22;35901;48.694;9.476;2024-03-25T08:25:00;8.60;99.90
50013;DHT22;35901;48.694;9.476;2024-03-25T08:27:26;8.90;99.90
50013;DHT22;35901;48.694;9.476;2024-03-25T08:29:52;8.80;99.90
50013;DHT22;35901;48.694;9.476;2024-03-25T08:32:19;8.60;99.90
50013;DHT22;35901;48.694;9.476;2024-03-25T08:34:45;8.80;99.90
50013;DHT22;35901;48.694;9.476;2024-03-25T08:37:11;9.20;99.90
50013;DHT22;35901;48.694;9.476;2024-03-25T08:39:37;9.30;99.90
50013;DHT22;35901;48.694;9.476;2024-03-25T08:42:03;9.60;99.90
50013;DHT22;35901;48.694;9.476;2024-03-25T08:44:29;10.00;99.90
50013;DHT22;35901;48.694;9.476;2024-03-25T08:46:54;10.20;99.90
50013;DHT22;35901;48.694;9.476;2024-03-25T08:49:20;10.60;99.90
50013;DHT22;35901;48.694;9.476;2024-03-25T08:51:45;10.80;99.90
50013;DHT22;35901;48.694;9.476;2024-03-25T08:54:11;10.70;99.90
50013;DHT22;35901;48.694;9.476;2024-03-25T08:56:37;10.70;99.90
50013;DHT22;35901;48.694;9.476;2024-03-25T08:59:03;10.90;99.90
50013;DHT22;35901;48.694;9.476;2024-03-25T09:01:28;10.90;99.90
50013;DHT22;35901;48.694;9.476;2024-03-25T09:03:56;11.00;99.90
50013;DHT22;35901;48.694;9.476;2024-03-25T09:06:22;10.90;99.90
50013;DHT22;35901;48.694;9.476;2024-03-25T09:08:47;11.00;99.90
50013;DHT22;35901;48.694;9.476;2024-03-25T09:11:32;11.00;99.90
50013;DHT22;35901;48.694;9.476;2024-03-25T09:13:58;11.30;99.90
50013;DHT22;35901;48.694;9.476;2024-03-25T09:16:24;11.70;99.90
50013;DHT22;35901;48.694;9.476;2024-03-25T09:18:49;11.60;99.90
50013;DHT22;35901;48.694;9.476;2024-03-25T09:21:15;11.50;99.90
50013;DHT22;35901;48.694;9.476;2024-03-25T09:23:41;11.20;99.90
50013;DHT22;35901;48.694;9.476;2024-03-25T09:26:07;11.20;99.90
50013;DHT22;35901;48.694;9.476;2024-03-25T09:28:32;11.30;99.90
50013;DHT22;35901;48.694;9.476;2024-03-25T09:30:58;11.30;99.90
50013;DHT22;35901;48.694;9.476;2024-03-25T09:33:24;11.00;99.90
50013;DHT22;35901;48.694;9.476;2024-03-25T09:35:51;11.10;99.90
50013;DHT22;35901;48.694;9.476;2024-03-25T09:38:16;11.40;99.90
50013;DHT22;35901;48.694;9.476;2024-03-25T09:40:42;11.50;99.90
50013;DHT22;35901;48.694;9.476;2024-03-25T09:43:20;11.90;99.90
50013;DHT22;35901;48.694;9.476;2024-03-25T09:45:48;12.40;99.90
50013;DHT22;35901;48.694;9.476;2024-03-25T09:48:16;12.70;99.90
50013;DHT22;35901;48.694;9.476;2024-03-25T09:50:44;12.10;99.90
50013;DHT22;35901;48.694;9.476;2024-03-25T09:53:10;12.00;99.90
50013;DHT22;35901;48.694;9.476;2024-03-25T09:55:36;12.10;99.90
50013;DHT22;35901;48.694;9.476;2024-03-25T09:58:05;11.90;99.90
50013;DHT22;35901;48.694;9.476;2024-03-25T10:00:31;12.10;99.90
50013;DHT22;35901;48.694;9.476;2024-03-25T10:02:56;12.40;99.90
50013;DHT22;35901;48.694;9.476;2024-03-25T10:05:22;12.60;99.90
50013;DHT22;35901;48.694;9.476;2024-03-25T10:07:48;12.80;99.90
50013;DHT22;35901;48.694;9.476;2024-03-25T10:10:13;12.60;99.90
50013;DHT22;35901;48.694;9.476;2024-03-25T10:13:42;12.00;99.90
50013;DHT22;35901;48.694;9.476;2024-03-25T10:16:08;11.00;99.90
50013;DHT22;35901;48.694;9.476;2024-03-25T10:18:34;10.60;99.90
50013;DHT22;35901;48.694;9.476;2024-03-25T10:20:59;10.40;99.90
50013;DHT22;35901;48.694;9.476;2024-03-25T10:23:25;10.70;99.90
50013;DHT22;35901;48.694;9.476;2024-03-25T10:25:52;11.10;99.90
50013;DHT22;35901;48.694;9.476;2024-03-25T10:28:19;11.10;99.90
50013;DHT22;35901;48.694;9.476;2024-03-25T10:30:44;11.00;99.90
50013;DHT22;35901;48.694;9.476;2024-03-25T10:33:10;11.10;99.90
50013;DHT22;35901;48.694;9.476;2024-03-25T10:35:37;11.90;99.90
50013;DHT22;35901;48.694;9.476;2024-03-25T10:38:05;12.70;96.90
50013;DHT22;35901;48.694;9.476;2024-03-25T10:40:33;13.70;91.80
50013;DHT22;35901;48.694;9.476;2024-03-25T10:43:08;13.10;93.10
50013;DHT22;35901;48.694;9.476;2024-03-25T10:45:40;12.10;94.50
50013;DHT22;35901;48.694;9.476;2024-03-25T10:48:30;12.20;96.40
50013;DHT22;35901;48.694;9.476;2024-03-25T10:50:58;12.90;94.10
50013;DHT22;35901;48.694;9.476;2024-03-25T10:53:27;13.50;93.10
50013;DHT22;35901;48.694;9.476;2024-03-25T10:55:55;13.70;92.90
50013;DHT22;35901;48.694;9.476;2024-03-25T10:58:22;13.70;91.50
50013;DHT22;35901;48.694;9.476;2024-03-25T11:00:52;13.50;89.20
50013;DHT22;35901;48.694;9.476;2024-03-25T11:03:20;13.40;91.00
50013;DHT22;35901;48.694;9.476;2024-03-25T11:05:47;13.80;91.20
50013;DHT22;35901;48.694;9.476;2024-03-25T11:08:16;13.60;88.10
50013;DHT22;35901;48.694;9.476;2024-03-25T11:10:47;13.20;89.70
50013;DHT22;35901;48.694;9.476;2024-03-25T11:13:32;12.40;89.20
50013;DHT22;35901;48.694;9.476;2024-03-25T11:15:58;11.30;90.80
50013;DHT22;35901;48.694;9.476;2024-03-25T11:18:25;10.80;92.10
50013;DHT22;35901;48.694;9.476;2024-03-25T11:21:05;10.90;92.40
50013;DHT22;35901;48.694;9.476;2024-03-25T11:23:41;10.70;95.30
50013;DHT22;35901;48.694;9.476;2024-03-25T11:26:24;10.60;95.40
50013;DHT22;35901;48.694;9.476;2024-03-25T11:28:50;10.40;93.50
50013;DHT22;35901;48.694;9.476;2024-03-25T11:31:16;10.40;95.60
50013;DHT22;35901;48.694;9.476;2024-03-25T11:33:44;10.10;95.50
50013;DHT22;35901;48.694;9.476;2024-03-25T11:36:10;10.00;95.50
50013;DHT22;35901;48.694;9.476;2024-03-25T11:38:37;9.80;96.40
50013;DHT22;35901;48.694;9.476;2024-03-25T11:41:06;9.60;96.70
50013;DHT22;35901;48.694;9.476;2024-03-25T11:43:32;9.60;96.80
50013;DHT22;35901;48.694;9.476;2024-03-25T11:45:58;10.20;96.40
50013;DHT22;35901;48.694;9.476;2024-03-25T11:48:24;10.70;94.20
50013;DHT22;35901;48.694;9.476;2024-03-25T11:50:49;11.00;91.20
50013;DHT22;35901;48.694;9.476;2024-03-25T11:53:18;10.80;92.00
50013;DHT22;35901;48.694;9.476;2024-03-25T11:55:49;10.60;92.90
50013;DHT22;35901;48.694;9.476;2024-03-25T11:58:15;11.10;91.40
50013;DHT22;35901;48.694;9.476;2024-03-25T12:00:47;11.60;89.90
50013;DHT22;35901;48.694;9.476;2024-03-25T12:03:17;12.20;89.80
50013;DHT22;35901;48.694;9.476;2024-03-25T12:05:46;12.60;89.30
50013;DHT22;35901;48.694;9.476;2024-03-25T12:08:11;13.00;84.90
50013;DHT22;35901;48.694;9.476;2024-03-25T12:10:38;13.00;78.60
50013;DHT22;35901;48.694;9.476;2024-03-25T12:13:23;12.60;83.30
50013;DHT22;35901;48.694;9.476;2024-03-25T12:15:51;12.50;83.20
50013;DHT22;35901;48.694;9.476;2024-03-25T12:18:17;11.90;82.80
50013;DHT22;35901;48.694;9.476;2024-03-25T12:20:48;11.20;83.90
50013;DHT22;35901;48.694;9.476;2024-03-25T12:23:13;11.00;83.80
50013;DHT22;35901;48.694;9.476;2024-03-25T12:25:40;11.30;85.10
50013;DHT22;35901;48.694;9.476;2024-03-25T12:28:09;11.80;86.10
50013;DHT22;35901;48.694;9.476;2024-03-25T12:30:54;12.20;82.00
50013;DHT22;35901;48.694;9.476;2024-03-25T12:33:22;13.60;81.70
50013;DHT22;35901;48.694;9.476;2024-03-25T12:35:51;14.10;71.90
50013;DHT22;35901;48.694;9.476;2024-03-25T12:38:31;13.00;79.10
50013;DHT22;35901;48.694;9.476;2024-03-25T12:41:06;12.70;76.10
50013;DHT22;35901;48.694;9.476;2024-03-25T12:43:34;11.80;76.40
50013;DHT22;35901;48.694;9.476;2024-03-25T12:46:00;11.70;79.60
50013;DHT22;35901;48.694;9.476;2024-03-25T12:48:26;11.90;78.30
50013;DHT22;35901;48.694;9.476;2024-03-25T12:50:52;11.90;80.90
50013;DHT22;35901;48.694;9.476;2024-03-25T12:53:19;11.90;79.20
50013;DHT22;35901;48.694;9.476;2024-03-25T12:55:48;12.10;83.20
50013;DHT22;35901;48.694;9.476;2024-03-25T12:58:14;12.60;86.00
50013;DHT22;35901;48.694;9.476;2024-03-25T13:00:40;12.80;89.50
50013;DHT22;35901;48.694;9.476;2024-03-25T13:03:09;13.50;84.20
50013;DHT22;35901;48.694;9.476;2024-03-25T13:05:35;12.70;77.40
50013;DHT22;35901;48.694;9.476;2024-03-25T13:08:01;13.10;82.00
50013;DHT22;35901;48.694;9.476;2024-03-25T13:10:29;13.40;82.60
50013;DHT22;35901;48.694;9.476;2024-03-25T13:12:55;13.20;85.10
50013;DHT22;35901;48.694;9.476;2024-03-25T13:15:21;13.00;84.60
50013;DHT22;35901;48.694;9.476;2024-03-25T13:17:46;12.90;79.00
50013;DHT22;35901;48.694;9.476;2024-03-25T13:20:12;13.30;79.70
50013;DHT22;35901;48.694;9.476;2024-03-25T13:22:39;12.90;79.80
50013;DHT22;35901;48.694;9.476;2024-03-25T13:25:06;12.80;78.10
50013;DHT22;35901;48.694;9.476;2024-03-25T13:27:32;12.90;82.00
50013;DHT22;35901;48.694;9.476;2024-03-25T13:29:58;13.60;77.50
50013;DHT22;35901;48.694;9.476;2024-03-25T13:32:24;13.30;80.60
50013;DHT22;35901;48.694;9.476;2024-03-25T13:34:50;13.50;78.60
50013;DHT22;35901;48.694;9.476;2024-03-25T13:37:16;13.40;81.80
50013;DHT22;35901;48.694;9.476;2024-03-25T13:39:41;13.20;77.90
50013;DHT22;35901;48.694;9.476;2024-03-25T13:42:07;12.90;76.00
50013;DHT22;35901;48.694;9.476;2024-03-25T13:44:33;12.80;77.90
50013;DHT22;35901;48.694;9.476;2024-03-25T13:46:58;13.30;73.90
50013;DHT22;35901;48.694;9.476;2024-03-25T13:49:24;13.60;80.60
50013;DHT22;35901;48.694;9.476;2024-03-25T13:51:58;13.40;83.40
50013;DHT22;35901;48.694;9.476;2024-03-25T13:54:26;13.50;84.50
50013;DHT22;35901;48.694;9.476;2024-03-25T13:56:51;13.20;76.70
50013;DHT22;35901;48.694;9.476;2024-03-25T13:59:18;13.20;78.60
50013;DHT22;35901;48.694;9.476;2024-03-25T14:01:44;13.60;73.60
50013;DHT22;35901;48.694;9.476;2024-03-25T14:04:10;13.20;76.60
50013;DHT22;35901;48.694;9.476;2024-03-25T14:06:36;12.70;77.10
50013;DHT22;35901;48.694;9.476;2024-03-25T14:09:06;12.70;80.60
50013;DHT22;35901;48.694;9.476;2024-03-25T14:11:34;12.80;82.30
50013;DHT22;35901;48.694;9.476;2024-03-25T14:14:00;13.50;71.60
50013;DHT22;35901;48.694;9.476;2024-03-25T14:16:27;13.20;72.50
50013;DHT22;35901;48.694;9.476;2024-03-25T14:18:53;13.30;86.50
50013;DHT22;35901;48.694;9.476;2024-03-25T14:21:18;13.30;81.30
50013;DHT22;35901;48.694;9.476;2024-03-25T14:23:44;13.10;74.20
50013;DHT22;35901;48.694;9.476;2024-03-25T14:26:12;13.00;74.90
50013;DHT22;35901;48.694;9.476;2024-03-25T14:28:40;12.80;75.50
50013;DHT22;35901;48.694;9.476;2024-03-25T14:31:06;13.50;77.60
50013;DHT22;35901;48.694;9.476;2024-03-25T14:33:31;13.20;80.20
50013;DHT22;35901;48.694;9.476;2024-03-25T14:35:57;12.70;77.90
50013;DHT22;35901;48.694;9.476;2024-03-25T14:38:23;12.80;79.90
50013;DHT22;35901;48.694;9.476;2024-03-25T14:40:49;13.20;79.70
50013;DHT22;35901;48.694;9.476;2024-03-25T14:43:14;13.20;74.60
50013;DHT22;35901;48.694;9.476;2024-03-25T14:45:44;12.70;72.10
50013;DHT22;35901;48.694;9.476;2024-03-25T14:48:10;12.40;78.20
50013;DHT22;35901;48.694;9.476;2024-03-25T14:50:36;12.20;76.20
50013;DHT22;35901;48.694;9.476;2024-03-25T14:53:02;12.60;77.50
50013;DHT22;35901;48.694;9.476;2024-03-25T14:55:29;12.60;74.70
50013;DHT22;35901;48.694;9.476;2024-03-25T14:57:55;12.70;69.80
50013;DHT22;35901;48.694;9.476;2024-03-25T15:00:20;12.80;68.80
50013;DHT22;35901;48.694;9.476;2024-03-25T15:02:46;12.70;68.60
50013;DHT22;35901;48.694;9.476;2024-03-25T15:05:12;12.70;71.40
50013;DHT22;35901;48.694;9.476;2024-03-25T15:07:38;12.60;69.00
50013;DHT22;35901;48.694;9.476;2024-03-25T15:10:04;12.80;66.60
50013;DHT22;35901;48.694;9.476;2024-03-25T15:12:30;12.80;66.90
50013;DHT22;35901;48.694;9.476;2024-03-25T15:14:56;12.70;67.00
50013;DHT22;35901;48.694;9.476;2024-03-25T15:17:22;12.80;64.20
50013;DHT22;35901;48.694;9.476;2024-03-25T15:19:47;12.60;69.90
50013;DHT22;35901;48.694;9.476;2024-03-25T15:22:13;12.60;61.00
50013;DHT22;35901;48.694;9.476;2024-03-25T15:24:39;12.60;63.20
50013;DHT22;35901;48.694;9.476;2024-03-25T15:27:04;12.70;63.60
50013;DHT22;35901;48.694;9.476;2024-03-25T15:29:30;12.70;61.50
50013;DHT22;35901;48.694;9.476;2024-03-25T15:31:56;12.60;58.90
50013;DHT22;35901;48.694;9.476;2024-03-25T15:34:22;12.40;58.40
50013;DHT22;35901;48.694;9.476;2024-03-25T15:36:47;12.30;63.00